Terminal Aerodrome Forecast
Issued by NWS

Home | Current Version | Previous Version | Text Only | Print | Product List | Glossary On
Versions: 1 2 3 4 5 6 7 8 9 10 11 12 13 14 15 16 17
350
FTUS41 KGYX 012323
TAFAUG
TAF
KAUG 012323Z 0200/0224 16004KT P6SM -SHRA OVC045
     FM020300 12004KT P6SM -SHRA SCT015 OVC040
      TEMPO 0203/0207 5SM -SHRA BR BKN015
     FM020700 VRB03KT 5SM -DZ BR BKN012 OVC025
     FM021200 07006KT 2SM -RADZ BR OVC004
     FM021800 06005KT 2SM RA BR OVC006=

USA.gov is the U.S. government's official web portal to all federal, state and local government web resources and services.